createdAt,value
2023-08-10T00:01:04.716Z,101420.34
2023-08-10T00:03:32.319Z,101418.75
2023-08-10T00:05:59.866Z,101425.63
2023-08-10T00:08:27.350Z,101431.75
2023-08-10T00:10:56.625Z,101432.66
2023-08-10T00:13:25.608Z,101434.38
2023-08-10T00:15:53.153Z,101434.34
2023-08-10T00:18:20.704Z,101433.41
2023-08-10T00:20:48.294Z,101438.72
2023-08-10T00:23:15.806Z,101438.72
2023-08-10T00:25:43.958Z,101435.31
2023-08-10T00:28:11.497Z,101437.03
2023-08-10T00:30:41.665Z,101436.16
2023-08-10T00:33:10.906Z,101436.13
2023-08-10T00:35:42.731Z,101430.88
2023-08-10T00:38:10.195Z,101432.59
2023-08-10T00:40:37.812Z,101436.91
2023-08-10T00:43:06.625Z,101439.53
2023-08-10T00:45:35.073Z,101435.22
2023-08-10T00:48:04.349Z,101443.84
2023-08-10T00:50:32.173Z,101438.66
2023-08-10T00:52:59.811Z,101436.91
2023-08-10T00:55:27.520Z,101437.75
2023-08-10T00:57:55.127Z,101432.50
2023-08-10T01:00:22.649Z,101440.38
2023-08-10T01:02:50.785Z,101442.16
2023-08-10T01:05:19.634Z,101449.19
2023-08-10T01:07:55.719Z,101449.09
2023-08-10T01:10:35.749Z,101455.97
2023-08-10T01:13:14.668Z,101453.34
2023-08-10T01:15:47.763Z,101455.94
2023-08-10T01:18:18.557Z,101461.97
2023-08-10T01:20:49.810Z,101454.16
2023-08-10T01:23:24.171Z,101451.59
2023-08-10T01:25:54.267Z,101446.44
2023-08-10T01:28:23.889Z,101451.66
2023-08-10T01:30:51.559Z,101453.47
2023-08-10T01:33:19.804Z,101463.84
2023-08-10T01:35:47.406Z,101457.75
2023-08-10T01:38:14.947Z,101458.56
2023-08-10T01:40:42.439Z,101456.88
2023-08-10T01:43:11.249Z,101449.09
2023-08-10T01:45:39.472Z,101456.88
2023-08-10T01:48:13.660Z,101454.31
2023-08-10T01:50:46.151Z,101462.16
2023-08-10T01:53:17.463Z,101457.81
2023-08-10T01:55:45.104Z,101457.81
2023-08-10T01:58:14.168Z,101461.28
2023-08-10T02:00:41.938Z,101463.06
2023-08-10T02:03:09.465Z,101455.28
2023-08-10T02:05:36.986Z,101456.16
2023-08-10T02:08:04.998Z,101463.06
2023-08-10T02:10:32.474Z,101457.84
2023-08-10T02:13:00.011Z,101463.97
2023-08-10T02:15:28.838Z,101470.91
2023-08-10T02:17:56.867Z,101459.59
2023-08-10T02:20:24.527Z,101467.38
2023-08-10T02:22:54.788Z,101463.06
2023-08-10T02:25:23.459Z,101464.84
2023-08-10T02:27:52.215Z,101459.69
2023-08-10T02:30:20.451Z,101464.91
2023-08-10T02:32:49.336Z,101462.28
2023-08-10T02:35:17.020Z,101466.59
2023-08-10T02:37:44.492Z,101460.56
2023-08-10T02:40:13.268Z,101455.38
2023-08-10T02:42:41.263Z,101453.66
2023-08-10T02:45:09.790Z,101458.84
2023-08-10T02:47:37.783Z,101453.66
2023-08-10T02:50:07.970Z,101461.47
2023-08-10T02:52:36.021Z,101464.94
2023-08-10T02:55:04.577Z,101468.41
2023-08-10T02:57:32.561Z,101473.59
2023-08-10T03:00:00.407Z,101463.22
2023-08-10T03:02:29.760Z,101477.06
2023-08-10T03:04:57.437Z,101470.97
2023-08-10T03:07:27.771Z,101474.47
2023-08-10T03:09:55.534Z,101471.88
2023-08-10T03:12:23.123Z,101485.72
2023-08-10T03:14:50.717Z,101481.41
2023-08-10T03:17:18.322Z,101482.25
2023-08-10T03:19:46.110Z,101484.88
2023-08-10T03:22:14.164Z,101478.78
2023-08-10T03:24:42.992Z,101481.41
2023-08-10T03:27:10.454Z,101484.84
2023-08-10T03:29:37.951Z,101485.72
2023-08-10T03:32:06.183Z,101485.72
2023-08-10T03:34:33.819Z,101494.41
2023-08-10T03:37:01.348Z,101488.34
2023-08-10T03:39:28.854Z,101485.75
2023-08-10T03:41:57.654Z,101497.00
2023-08-10T03:44:25.113Z,101489.22
2023-08-10T03:46:54.531Z,101484.03
2023-08-10T03:49:24.001Z,101490.06
2023-08-10T03:51:52.191Z,101491.78
2023-08-10T03:54:19.842Z,101494.41
2023-08-10T03:56:47.323Z,101506.53
2023-08-10T03:59:16.313Z,101504.78
2023-08-10T04:01:44.590Z,101516.03
2023-08-10T04:04:12.065Z,101513.47
2023-08-10T04:06:40.752Z,101520.41
2023-08-10T04:09:10.924Z,101520.41
2023-08-10T04:11:38.459Z,101511.72
2023-08-10T04:14:06.319Z,101513.44
2023-08-10T04:16:35.207Z,101513.47
2023-08-10T04:19:02.814Z,101509.16
2023-08-10T04:21:30.300Z,101516.06
2023-08-10T04:23:57.754Z,101518.66
2023-08-10T04:26:25.538Z,101514.31
2023-08-10T04:28:53.978Z,101516.09
2023-08-10T04:31:21.447Z,101516.94
2023-08-10T04:33:50.253Z,101512.59
2023-08-10T04:36:17.729Z,101514.31
2023-08-10T04:38:45.183Z,101510.84
2023-08-10T04:41:12.696Z,101514.31
2023-08-10T04:43:40.117Z,101513.41
2023-08-10T04:46:07.608Z,101516.00
2023-08-10T04:48:36.146Z,101523.75
2023-08-10T04:51:06.318Z,101520.28
2023-08-10T04:53:33.785Z,101522.84
2023-08-10T04:56:01.791Z,101526.38
2023-08-10T04:58:29.627Z,101525.41
2023-08-10T05:00:57.157Z,101524.50
2023-08-10T05:03:24.801Z,101530.56
2023-08-10T05:05:52.940Z,101524.50
2023-08-10T05:08:23.070Z,101530.50
2023-08-10T05:10:51.176Z,101546.88
2023-08-10T05:13:18.753Z,101541.53
2023-08-10T05:15:46.249Z,101547.44
2023-08-10T05:18:15.511Z,101550.00
2023-08-10T05:20:42.996Z,101556.19
2023-08-10T05:23:10.496Z,101554.50
2023-08-10T05:25:39.470Z,101560.69
2023-08-10T05:28:07.423Z,101562.56
2023-08-10T05:30:34.903Z,101559.91
2023-08-10T05:33:02.348Z,101561.69
2023-08-10T05:35:29.867Z,101564.25
2023-08-10T05:37:57.335Z,101563.28
2023-08-10T05:40:25.025Z,101555.53
2023-08-10T05:42:53.824Z,101565.03
2023-08-10T05:45:21.589Z,101564.09
2023-08-10T05:47:51.590Z,101562.53
2023-08-10T05:50:19.738Z,101574.53
2023-08-10T05:52:47.880Z,101578.84
2023-08-10T05:55:15.597Z,101570.09
2023-08-10T05:57:43.226Z,101577.06
2023-08-10T06:00:15.171Z,101568.31
2023-08-10T06:02:43.625Z,101573.41
2023-08-10T06:05:11.387Z,101569.91
2023-08-10T06:07:38.984Z,101568.63
2023-08-10T06:10:06.947Z,101571.59
2023-08-10T06:12:34.433Z,101569.06
2023-08-10T06:15:02.195Z,101575.16
2023-08-10T06:17:31.064Z,101571.84
2023-08-10T06:19:59.853Z,101573.53
2023-08-10T06:22:28.242Z,101577.94
2023-08-10T06:24:55.832Z,101582.41
2023-08-10T06:27:23.364Z,101579.75
2023-08-10T06:29:50.911Z,101579.75
2023-08-10T06:32:19.245Z,101586.69
2023-08-10T06:34:48.321Z,101586.75
2023-08-10T06:37:17.955Z,101585.94
2023-08-10T06:39:47.473Z,101589.97
2023-08-10T06:42:15.201Z,101587.31
2023-08-10T06:44:43.036Z,101587.34
2023-08-10T06:47:11.856Z,101586.31
2023-08-10T06:49:39.669Z,101602.03
2023-08-10T06:52:08.729Z,101595.19
2023-08-10T06:54:36.337Z,101597.16
2023-08-10T06:57:04.249Z,101607.59
2023-08-10T07:00:32.936Z,101598.44
2023-08-10T07:02:21.240Z,101603.44
2023-08-10T07:04:48.997Z,101598.06
2023-08-10T07:07:17.873Z,101598.66
2023-08-10T07:09:45.368Z,101595.91
2023-08-10T07:12:12.910Z,101598.31
2023-08-10T07:14:40.386Z,101600.16
2023-08-10T07:17:08.185Z,101602.25
2023-08-10T07:19:37.115Z,101608.16
2023-08-10T07:22:04.940Z,101613.75
2023-08-10T07:24:33.827Z,101610.72
2023-08-10T07:27:01.339Z,101620.53
2023-08-10T07:29:29.007Z,101609.09
2023-08-10T07:32:01.649Z,101603.09
2023-08-10T07:34:29.240Z,101605.03
2023-08-10T07:36:56.797Z,101605.59
2023-08-10T07:39:24.297Z,101602.97
2023-08-10T07:41:53.950Z,101605.09
2023-08-10T07:44:21.711Z,101610.22
2023-08-10T07:46:50.029Z,101612.81
2023-08-10T07:49:18.165Z,101621.22
2023-08-10T07:51:48.384Z,101621.44
2023-08-10T07:54:16.013Z,101626.47
2023-08-10T07:56:44.313Z,101628.75
2023-08-10T07:59:13.255Z,101635.75
2023-08-10T08:01:40.961Z,101632.50
2023-08-10T08:04:08.607Z,101632.75
2023-08-10T08:06:37.166Z,101633.41
2023-08-10T08:09:07.672Z,101634.06
2023-08-10T08:11:36.015Z,101629.69
2023-08-10T08:14:03.635Z,101630.84
2023-08-10T08:16:33.679Z,101628.63
2023-08-10T08:19:01.604Z,101625.53
2023-08-10T08:21:30.909Z,101625.63
2023-08-10T08:23:59.473Z,101629.88
2023-08-10T08:26:27.861Z,101626.16
2023-08-10T08:28:56.045Z,101626.28
2023-08-10T08:31:23.658Z,101633.28
2023-08-10T08:33:52.993Z,101624.25
2023-08-10T08:36:20.592Z,101622.19
2023-08-10T08:38:48.230Z,101620.28
2023-08-10T08:41:19.009Z,101625.63
2023-08-10T08:43:48.369Z,101618.59
2023-08-10T08:46:18.221Z,101612.50
2023-08-10T08:48:47.149Z,101616.34
2023-08-10T08:51:16.166Z,101623.91
2023-08-10T08:53:43.910Z,101618.66
2023-08-10T08:56:11.567Z,101621.94
2023-08-10T08:58:39.410Z,101620.78
2023-08-10T09:01:09.250Z,101627.00
2023-08-10T09:03:36.941Z,101622.63
2023-08-10T09:06:04.661Z,101622.50
2023-08-10T09:08:34.774Z,101622.56
2023-08-10T09:11:03.573Z,101620.59
2023-08-10T09:13:31.236Z,101631.69
2023-08-10T09:16:10.442Z,101630.13
2023-08-10T09:18:39.594Z,101630.34
2023-08-10T09:21:16.366Z,101633.69
2023-08-10T09:23:48.912Z,101622.19
2023-08-10T09:26:18.582Z,101616.09
2023-08-10T09:28:47.445Z,101620.19
2023-08-10T09:31:15.624Z,101615.63
2023-08-10T09:33:43.540Z,101612.91
2023-08-10T09:36:11.497Z,101612.41
2023-08-10T09:38:39.135Z,101615.31
2023-08-10T09:41:12.441Z,101621.13
2023-08-10T09:43:40.870Z,101617.94
2023-08-10T09:46:10.695Z,101620.31
2023-08-10T09:48:39.607Z,101625.25
2023-08-10T09:51:08.199Z,101633.09
2023-08-10T09:53:36.218Z,101627.63
2023-08-10T09:56:08.151Z,101628.53
2023-08-10T09:58:38.562Z,101623.56
2023-08-10T10:01:06.673Z,101619.66
2023-08-10T10:03:34.722Z,101623.25
2023-08-10T10:06:03.133Z,101620.06
2023-08-10T10:08:32.398Z,101621.97
2023-08-10T10:11:01.488Z,101618.13
2023-08-10T10:13:29.645Z,101622.06
2023-08-10T10:15:58.649Z,101615.03
2023-08-10T10:18:27.124Z,101617.13
2023-08-10T10:20:55.011Z,101617.50
2023-08-10T10:23:23.351Z,101613.97
2023-08-10T10:25:59.236Z,101617.47
2023-08-10T10:28:30.039Z,101611.09
2023-08-10T10:31:08.589Z,101609.31
2023-08-10T10:33:36.794Z,101595.53
2023-08-10T10:36:21.436Z,101600.22
2023-08-10T10:38:56.974Z,101600.50
2023-08-10T10:41:32.832Z,101597.31
2023-08-10T10:44:02.561Z,101593.78
2023-08-10T10:46:38.718Z,101592.25
2023-08-10T10:49:08.195Z,101588.75
2023-08-10T10:51:53.228Z,101591.47
2023-08-10T10:54:21.071Z,101588.91
2023-08-10T10:56:48.889Z,101583.59
2023-08-10T10:59:17.063Z,101584.16
2023-08-10T11:01:49.562Z,101591.13
2023-08-10T11:04:17.191Z,101590.91
2023-08-10T11:06:44.726Z,101593.03
2023-08-10T11:09:14.421Z,101578.38
2023-08-10T11:11:42.785Z,101580.78
2023-08-10T11:14:10.470Z,101583.69
2023-08-10T11:16:43.529Z,101579.94
2023-08-10T11:19:15.082Z,101577.13
2023-08-10T11:21:44.901Z,101583.91
2023-08-10T11:24:13.936Z,101586.88
2023-08-10T11:26:42.572Z,101586.66
2023-08-10T11:29:11.326Z,101584.16
2023-08-10T11:31:43.847Z,101586.06
2023-08-10T11:34:22.826Z,101584.66
2023-08-10T11:36:50.888Z,101582.31
2023-08-10T11:39:18.636Z,101588.16
2023-08-10T11:41:47.435Z,101576.88
2023-08-10T11:44:28.183Z,101576.41
2023-08-10T11:46:58.919Z,101575.94
2023-08-10T11:49:33.641Z,101576.94
2023-08-10T11:52:03.756Z,101571.22
2023-08-10T11:54:33.038Z,101570.94
2023-08-10T11:57:10.617Z,101575.88
2023-08-10T11:59:38.331Z,101577.50
2023-08-10T12:02:06.137Z,101563.97
2023-08-10T12:04:38.333Z,101561.06
2023-08-10T12:07:07.124Z,101566.84
2023-08-10T12:09:34.900Z,101561.22
2023-08-10T12:12:05.181Z,101563.28
2023-08-10T12:14:32.890Z,101564.06
2023-08-10T12:17:00.509Z,101561.03
2023-08-10T12:19:28.010Z,101559.56
2023-08-10T12:21:56.810Z,101565.50
2023-08-10T12:24:24.298Z,101569.19
2023-08-10T12:26:52.277Z,101562.31
2023-08-10T12:29:19.983Z,101555.13
2023-08-10T12:31:47.565Z,101547.91
2023-08-10T12:34:15.101Z,101552.38
2023-08-10T12:36:42.579Z,101549.03
2023-08-10T12:39:11.829Z,101553.09
2023-08-10T12:41:39.336Z,101549.78
2023-08-10T12:44:07.413Z,101549.50
2023-08-10T12:46:35.101Z,101551.09
2023-08-10T12:49:02.608Z,101553.91
2023-08-10T12:51:30.141Z,101554.78
2023-08-10T12:53:57.935Z,101547.00
2023-08-10T12:56:26.860Z,101554.41
2023-08-10T12:58:54.414Z,101552.50
2023-08-10T13:01:21.901Z,101551.94
2023-08-10T13:03:49.449Z,101544.72
2023-08-10T13:06:16.933Z,101543.53
2023-08-10T13:08:46.430Z,101541.59
2023-08-10T13:11:15.644Z,101548.94
2023-08-10T13:13:44.656Z,101547.16
2023-08-10T13:16:12.171Z,101544.78
2023-08-10T13:18:39.789Z,101549.63
2023-08-10T13:21:07.452Z,101547.03
2023-08-10T13:23:35.050Z,101541.53
2023-08-10T13:26:02.550Z,101545.78
2023-08-10T13:28:30.329Z,101541.16
2023-08-10T13:30:59.431Z,101538.28
2023-08-10T13:33:27.124Z,101532.97
2023-08-10T13:35:54.723Z,101525.75
2023-08-10T13:38:22.381Z,101525.28
2023-08-10T13:40:50.198Z,101517.53
2023-08-10T13:43:17.684Z,101525.81
2023-08-10T13:45:45.297Z,101524.16
2023-08-10T13:48:14.162Z,101526.25
2023-08-10T13:50:41.793Z,101522.44
2023-08-10T13:53:10.481Z,101521.94
2023-08-10T13:55:38.013Z,101519.81
2023-08-10T13:58:06.519Z,101521.75
2023-08-10T14:00:34.358Z,101520.06
2023-08-10T14:03:02.171Z,101525.44
2023-08-10T14:05:33.945Z,101523.50
2023-08-10T14:08:01.664Z,101521.31
2023-08-10T14:10:29.141Z,101524.00
2023-08-10T14:12:58.160Z,101538.00
2023-08-10T14:15:26.665Z,101532.81
2023-08-10T14:17:55.265Z,101514.94
2023-08-10T14:20:22.961Z,101518.53
2023-08-10T14:22:51.800Z,101525.44
2023-08-10T14:25:19.379Z,101520.50
2023-08-10T14:27:46.968Z,101528.78
2023-08-10T14:30:14.638Z,101539.28
2023-08-10T14:32:42.192Z,101529.84
2023-08-10T14:35:11.313Z,101525.25
2023-08-10T14:37:38.978Z,101528.28
2023-08-10T14:40:08.871Z,101519.84
2023-08-10T14:42:36.454Z,101519.47
2023-08-10T14:45:04.305Z,101522.31
2023-08-10T14:47:36.607Z,101522.31
2023-08-10T14:50:04.580Z,101520.72
2023-08-10T14:52:32.076Z,101521.38
2023-08-10T14:55:12.091Z,101516.16
2023-08-10T14:57:50.295Z,101530.84
2023-08-10T15:00:19.127Z,101522.03
2023-08-10T15:02:47.862Z,101518.88
2023-08-10T15:05:16.663Z,101532.69
2023-08-10T15:07:45.617Z,101526.84
2023-08-10T15:10:13.452Z,101523.19
2023-08-10T15:12:41.980Z,101529.41
2023-08-10T15:15:14.159Z,101523.22
2023-08-10T15:17:42.199Z,101530.41
2023-08-10T15:20:12.961Z,101531.13
2023-08-10T15:22:41.028Z,101524.47
2023-08-10T15:25:10.549Z,101529.66
2023-08-10T15:27:40.381Z,101527.94
2023-08-10T15:30:09.385Z,101522.09
2023-08-10T15:32:38.217Z,101529.06
2023-08-10T15:35:07.410Z,101523.91
2023-08-10T15:37:35.050Z,101533.69
2023-08-10T15:40:02.834Z,101527.28
2023-08-10T15:42:30.368Z,101528.22
2023-08-10T15:44:58.080Z,101527.22
2023-08-10T15:47:25.514Z,101520.44
2023-08-10T15:49:54.863Z,101513.94
2023-08-10T15:52:22.982Z,101515.72
2023-08-10T15:54:50.528Z,101516.06
2023-08-10T15:57:18.192Z,101523.28
2023-08-10T15:59:45.812Z,101521.75
2023-08-10T16:02:14.943Z,101525.63
2023-08-10T16:04:42.962Z,101524.72
2023-08-10T16:07:11.910Z,101526.13
2023-08-10T16:09:39.478Z,101516.56
2023-08-10T16:12:08.424Z,101527.09
2023-08-10T16:14:36.303Z,101524.38
2023-08-10T16:17:05.319Z,101522.19
2023-08-10T16:19:32.791Z,101529.31
2023-08-10T16:22:00.352Z,101522.59
2023-08-10T16:24:29.616Z,101527.63
2023-08-10T16:26:57.195Z,101529.56
2023-08-10T16:29:24.692Z,101522.03
2023-08-10T16:31:52.253Z,101520.13
2023-08-10T16:34:19.762Z,101528.13
2023-08-10T16:36:47.428Z,101538.53
2023-08-10T16:39:15.769Z,101525.69
2023-08-10T16:41:44.736Z,101532.44
2023-08-10T16:44:12.404Z,101524.22
2023-08-10T16:46:41.820Z,101522.97
2023-08-10T16:49:09.458Z,101522.69
2023-08-10T16:51:37.097Z,101518.03
2023-08-10T16:54:11.778Z,101527.56
2023-08-10T16:56:40.054Z,101516.91
2023-08-10T16:59:09.012Z,101520.47
2023-08-10T17:01:36.942Z,101528.06
2023-08-10T17:04:04.644Z,101519.50
2023-08-10T17:06:32.333Z,101530.47
2023-08-10T17:08:59.996Z,101522.09
2023-08-10T17:11:27.606Z,101517.41
2023-08-10T17:13:56.343Z,101515.06
2023-08-10T17:16:26.634Z,101519.03
2023-08-10T17:18:54.620Z,101522.59
2023-08-10T17:21:22.688Z,101524.22
2023-08-10T17:23:51.487Z,101521.16
2023-08-10T17:26:19.089Z,101527.19
2023-08-10T17:28:46.611Z,101529.47
2023-08-10T17:31:15.392Z,101530.22
2023-08-10T17:33:44.631Z,101515.66
2023-08-10T17:36:12.688Z,101523.56
2023-08-10T17:38:41.163Z,101529.47
2023-08-10T17:41:09.080Z,101528.13
2023-08-10T17:43:36.991Z,101532.94
2023-08-10T17:46:04.576Z,101526.72
2023-08-10T17:48:32.101Z,101524.41
2023-08-10T17:51:05.037Z,101526.56
2023-08-10T17:53:32.527Z,101539.69
2023-08-10T17:56:00.017Z,101538.47
2023-08-10T17:58:28.465Z,101544.16
2023-08-10T18:01:06.704Z,101541.00
2023-08-10T18:03:34.343Z,101544.34
2023-08-10T18:06:03.348Z,101548.53
2023-08-10T18:08:30.917Z,101547.03
2023-08-10T18:10:58.410Z,101546.47
2023-08-10T18:13:26.148Z,101555.22
2023-08-10T18:15:53.967Z,101551.06
2023-08-10T18:18:21.513Z,101550.88
2023-08-10T18:20:49.317Z,101555.09
2023-08-10T18:23:22.904Z,101552.84
2023-08-10T18:25:51.043Z,101551.38
2023-08-10T18:28:18.716Z,101551.88
2023-08-10T18:30:46.334Z,101552.50
2023-08-10T18:33:13.937Z,101554.19
2023-08-10T18:35:41.440Z,101558.72
2023-08-10T18:38:09.539Z,101555.44
2023-08-10T18:40:39.363Z,101554.91
2023-08-10T18:43:08.207Z,101556.81
2023-08-10T18:45:36.183Z,101558.75
2023-08-10T18:48:04.669Z,101559.53
2023-08-10T18:50:32.569Z,101571.22
2023-08-10T18:53:00.140Z,101572.13
2023-08-10T18:55:27.707Z,101564.34
2023-08-10T18:57:56.561Z,101567.63
2023-08-10T19:00:24.695Z,101573.91
2023-08-10T19:02:52.229Z,101562.72
2023-08-10T19:05:19.799Z,101574.31
2023-08-10T19:07:47.791Z,101574.53
2023-08-10T19:10:15.534Z,101574.06
2023-08-10T19:12:43.309Z,101568.88
2023-08-10T19:15:12.698Z,101579.53
2023-08-10T19:17:40.791Z,101579.53
2023-08-10T19:20:10.094Z,101581.44
2023-08-10T19:22:37.574Z,101589.28
2023-08-10T19:25:05.615Z,101584.94
2023-08-10T19:27:33.168Z,101580.56
2023-08-10T19:30:03.756Z,101580.75
2023-08-10T19:32:32.683Z,101584.41
2023-08-10T19:35:00.312Z,101581.66
2023-08-10T19:37:27.822Z,101583.53
2023-08-10T19:39:55.322Z,101584.47
2023-08-10T19:42:22.856Z,101593.88
2023-08-10T19:44:50.331Z,101594.78
2023-08-10T19:47:20.935Z,101592.41
2023-08-10T19:49:50.180Z,101593.25
2023-08-10T19:52:17.738Z,101597.56
2023-08-10T19:54:45.194Z,101600.34
2023-08-10T19:57:12.705Z,101599.50
2023-08-10T19:59:40.212Z,101602.13
2023-08-10T20:02:07.931Z,101597.88
2023-08-10T20:04:35.841Z,101597.97
2023-08-10T20:07:05.351Z,101599.78
2023-08-10T20:09:32.858Z,101611.22
2023-08-10T20:12:00.436Z,101612.09
2023-08-10T20:14:28.273Z,101611.31
2023-08-10T20:16:56.268Z,101608.75
2023-08-10T20:19:24.575Z,101615.78
2023-08-10T20:21:52.083Z,101613.34
2023-08-10T20:24:21.878Z,101609.03
2023-08-10T20:26:49.341Z,101616.09
2023-08-10T20:29:16.836Z,101616.09
2023-08-10T20:31:44.458Z,101615.28
2023-08-10T20:34:11.982Z,101612.56
2023-08-10T20:36:40.933Z,101616.84
2023-08-10T20:39:09.232Z,101613.50
2023-08-10T20:41:37.989Z,101619.69
2023-08-10T20:44:06.158Z,101617.03
2023-08-10T20:46:33.699Z,101620.56
2023-08-10T20:49:01.258Z,101623.25
2023-08-10T20:51:28.941Z,101625.09
2023-08-10T20:53:57.237Z,101627.78
2023-08-10T20:56:25.128Z,101625.09
2023-08-10T20:58:53.916Z,101623.38
2023-08-10T21:01:21.746Z,101622.47
2023-08-10T21:06:18.313Z,101616.53
2023-08-10T21:08:47.189Z,101617.34
2023-08-10T21:11:14.924Z,101620.03
2023-08-10T21:13:42.797Z,101625.13
2023-08-10T21:16:11.747Z,101625.09
2023-08-10T21:18:39.231Z,101627.00
2023-08-10T21:21:06.670Z,101627.84
2023-08-10T21:23:34.495Z,101628.63
2023-08-10T21:26:01.969Z,101629.44
2023-08-10T21:28:29.461Z,101630.53
2023-08-10T21:30:56.987Z,101625.41
2023-08-10T21:33:25.790Z,101629.69
2023-08-10T21:35:53.306Z,101632.28
2023-08-10T21:38:20.875Z,101628.09
2023-08-10T21:40:48.370Z,101627.06
2023-08-10T21:43:15.849Z,101636.75
2023-08-10T21:45:43.441Z,101635.09
2023-08-10T21:48:10.926Z,101635.97
2023-08-10T21:50:39.931Z,101642.97
2023-08-10T21:53:07.514Z,101636.72
2023-08-10T21:55:35.013Z,101632.31
2023-08-10T21:58:02.566Z,101639.44
2023-08-10T22:00:30.042Z,101640.34
2023-08-10T22:02:57.546Z,101635.19
2023-08-10T22:05:26.078Z,101637.81
2023-08-10T22:07:54.877Z,101636.13
2023-08-10T22:10:22.354Z,101639.56
2023-08-10T22:12:50.000Z,101642.22
2023-08-10T22:15:17.482Z,101637.88
2023-08-10T22:17:45.111Z,101637.00
2023-08-10T22:20:13.656Z,101644.88
2023-08-10T22:22:57.699Z,101640.50
2023-08-10T22:25:32.483Z,101639.56
2023-08-10T22:28:01.606Z,101640.56
2023-08-10T22:30:29.212Z,101635.31
2023-08-10T22:32:56.738Z,101644.03
2023-08-10T22:35:24.574Z,101633.66
2023-08-10T22:37:52.099Z,101641.50
2023-08-10T22:40:19.770Z,101637.16
2023-08-10T22:42:48.561Z,101639.78
2023-08-10T22:45:15.239Z,101637.13
2023-08-10T22:47:43.190Z,101637.19
2023-08-10T22:50:14.210Z,101642.41
2023-08-10T22:52:42.289Z,101635.50
2023-08-10T22:55:10.791Z,101641.56
2023-08-10T22:57:39.023Z,101641.50
2023-08-10T23:00:11.101Z,101636.34
2023-08-10T23:02:38.578Z,101651.09
2023-08-10T23:05:06.989Z,101645.03
2023-08-10T23:07:34.440Z,101649.38
2023-08-10T23:10:03.865Z,101645.94
2023-08-10T23:12:31.422Z,101645.88
2023-08-10T23:14:59.070Z,101643.28
2023-08-10T23:17:29.573Z,101649.41
2023-08-10T23:19:58.395Z,101645.03
2023-08-10T23:22:25.941Z,101645.91
2023-08-10T23:24:53.490Z,101647.69
2023-08-10T23:27:20.955Z,101642.50
2023-08-10T23:29:49.426Z,101645.97
2023-08-10T23:32:17.039Z,101642.50
2023-08-10T23:34:46.561Z,101648.63
2023-08-10T23:37:14.775Z,101638.22
2023-08-10T23:39:42.289Z,101645.16
2023-08-10T23:42:09.737Z,101643.44
2023-08-10T23:44:37.252Z,101642.56
2023-08-10T23:47:16.908Z,101642.56
2023-08-10T23:49:46.312Z,101645.13
2023-08-10T23:52:13.801Z,101647.75
2023-08-10T23:54:41.284Z,101645.13
2023-08-10T23:57:09.181Z,101638.25
2023-08-10T23:59:37.419Z,101641.69
